createdAt,value
2023-03-11T00:00:40.317Z,576.00
2023-03-11T00:04:39.945Z,562.00
2023-03-11T00:08:39.908Z,542.00
2023-03-11T00:12:39.871Z,562.00
2023-03-11T00:16:39.916Z,551.00
2023-03-11T00:20:39.805Z,568.00
2023-03-11T00:24:39.785Z,551.00
2023-03-11T00:28:39.743Z,571.00
2023-03-11T00:32:39.805Z,554.00
2023-03-11T00:36:39.667Z,601.00
2023-03-11T00:40:39.636Z,585.00
2023-03-11T00:44:39.594Z,590.00
2023-03-11T00:48:39.570Z,596.00
2023-03-11T00:52:39.531Z,608.00
2023-03-11T00:56:39.514Z,578.00
2023-03-11T01:00:39.444Z,568.00
2023-03-11T01:04:39.466Z,567.00
2023-03-11T01:08:39.419Z,583.00
2023-03-11T01:12:39.340Z,610.00
2023-03-11T01:16:39.275Z,586.00
2023-03-11T01:20:39.285Z,551.00
2023-03-11T01:24:39.322Z,560.00
2023-03-11T01:28:39.383Z,588.00
2023-03-11T01:32:39.594Z,580.00
2023-03-11T01:36:39.437Z,584.00
2023-03-11T01:40:39.446Z,616.00
2023-03-11T01:44:39.439Z,576.00
2023-03-11T01:48:39.452Z,593.00
2023-03-11T01:52:39.423Z,561.00
2023-03-11T01:56:39.455Z,567.00
2023-03-11T02:00:39.458Z,591.00
2023-03-11T02:04:39.493Z,552.00
2023-03-11T02:08:39.562Z,634.00
2023-03-11T02:12:39.519Z,621.00
2023-03-11T02:16:39.521Z,620.00
2023-03-11T02:20:39.551Z,597.00
2023-03-11T02:24:39.523Z,541.00
2023-03-11T02:28:39.524Z,578.00
2023-03-11T02:32:39.556Z,589.00
2023-03-11T02:36:39.515Z,558.00
2023-03-11T02:40:39.507Z,576.00
2023-03-11T02:44:39.488Z,592.00
2023-03-11T02:48:39.508Z,541.00
2023-03-11T02:52:39.511Z,559.00
2023-03-11T02:56:39.517Z,586.00
2023-03-11T03:00:39.570Z,614.00
2023-03-11T03:04:39.514Z,550.00
2023-03-11T03:08:39.534Z,588.00
2023-03-11T03:12:39.513Z,561.00
2023-03-11T03:16:39.626Z,572.00
2023-03-11T03:20:39.525Z,588.00
2023-03-11T03:24:39.532Z,654.00
2023-03-11T03:28:39.502Z,549.00
2023-03-11T03:32:39.597Z,585.00
2023-03-11T03:36:39.610Z,555.00
2023-03-11T03:40:39.588Z,528.00
2023-03-11T03:44:39.604Z,553.00
2023-03-11T03:48:39.626Z,546.00
2023-03-11T03:52:39.592Z,560.00
2023-03-11T03:56:39.611Z,538.00
2023-03-11T04:00:39.677Z,531.00
2023-03-11T04:04:39.662Z,587.00
2023-03-11T04:08:39.689Z,542.00
2023-03-11T04:12:39.778Z,552.00
2023-03-11T04:16:39.789Z,543.00
2023-03-11T04:20:39.863Z,543.00
2023-03-11T04:24:39.959Z,547.00
2023-03-11T04:28:39.979Z,539.00
2023-03-11T04:32:40.144Z,536.00
2023-03-11T04:36:40.175Z,518.00
2023-03-11T04:40:40.399Z,522.00
2023-03-11T04:44:40.328Z,539.00
2023-03-11T04:48:40.441Z,523.00
2023-03-11T04:52:40.519Z,522.00
2023-03-11T04:56:40.623Z,518.00
2023-03-11T05:00:40.905Z,517.00
2023-03-11T05:04:41.066Z,511.00
2023-03-11T05:08:41.127Z,506.00
2023-03-11T05:12:41.316Z,524.00
2023-03-11T05:16:41.522Z,515.00
2023-03-11T05:20:41.701Z,516.00
2023-03-11T05:24:41.675Z,509.00
2023-03-11T05:28:41.644Z,528.00
2023-03-11T05:32:41.656Z,526.00
2023-03-11T05:36:41.533Z,528.00
2023-03-11T05:40:41.536Z,529.00
2023-03-11T05:44:41.488Z,535.00
2023-03-11T05:48:41.454Z,541.00
2023-03-11T05:52:41.429Z,545.00
2023-03-11T05:56:41.370Z,532.00
2023-03-11T06:00:41.343Z,527.00
2023-03-11T06:04:41.607Z,547.00
2023-03-11T06:08:41.467Z,525.00
2023-03-11T06:12:41.453Z,503.00
2023-03-11T06:16:41.420Z,527.00
2023-03-11T06:20:41.361Z,562.00
2023-03-11T06:24:41.354Z,545.00
2023-03-11T06:28:41.295Z,582.00
2023-03-11T06:32:41.245Z,568.00
2023-03-11T06:36:41.202Z,567.00
2023-03-11T06:40:41.178Z,588.00
2023-03-11T06:44:41.175Z,582.00
2023-03-11T06:48:41.326Z,584.00
2023-03-11T06:52:41.508Z,586.00
2023-03-11T06:56:41.695Z,597.00
2023-03-11T07:00:42.814Z,570.00
2023-03-11T07:04:42.113Z,583.00
2023-03-11T07:08:42.325Z,563.00
2023-03-11T07:12:42.557Z,551.00
2023-03-11T07:16:42.868Z,561.00
2023-03-11T07:20:42.949Z,558.00
2023-03-11T07:24:43.175Z,559.00
2023-03-11T07:28:43.393Z,546.00
2023-03-11T07:32:44.053Z,543.00
2023-03-11T07:36:43.762Z,525.00
2023-03-11T07:40:44.030Z,530.00
2023-03-11T07:44:44.184Z,528.00
2023-03-11T07:48:44.432Z,531.00
2023-03-11T07:52:44.612Z,539.00
2023-03-11T07:56:44.820Z,522.00
2023-03-11T08:00:45.002Z,541.00
2023-03-11T08:04:45.189Z,527.00
2023-03-11T08:08:45.381Z,537.00
2023-03-11T08:12:45.550Z,519.00
2023-03-11T08:16:45.778Z,516.00
2023-03-11T08:20:45.966Z,523.00
2023-03-11T08:24:46.175Z,537.00
2023-03-11T08:28:46.398Z,554.00
2023-03-11T08:32:46.640Z,550.00
2023-03-11T08:36:46.790Z,543.00
2023-03-11T08:40:47.027Z,539.00
2023-03-11T08:44:47.204Z,521.00
2023-03-11T08:48:47.508Z,502.00
2023-03-11T08:52:47.576Z,525.00
2023-03-11T08:56:47.761Z,505.00
2023-03-11T09:00:47.940Z,509.00
2023-03-11T09:04:48.126Z,517.00
2023-03-11T09:08:48.262Z,512.00
2023-03-11T09:12:48.431Z,549.00
2023-03-11T09:16:48.560Z,512.00
2023-03-11T09:20:48.738Z,550.00
2023-03-11T09:24:48.941Z,561.00
2023-03-11T09:28:49.393Z,528.00
2023-03-11T09:32:49.185Z,534.00
2023-03-11T09:36:49.337Z,548.00
2023-03-11T09:40:49.509Z,543.00
2023-03-11T09:44:49.626Z,544.00
2023-03-11T09:48:49.784Z,558.00
2023-03-11T09:52:49.961Z,541.00
2023-03-11T09:56:50.106Z,554.00
2023-03-11T10:00:50.212Z,559.00
2023-03-11T10:04:50.310Z,590.00
2023-03-11T10:08:50.393Z,583.00
2023-03-11T10:12:50.436Z,598.00
2023-03-11T10:16:50.491Z,588.00
2023-03-11T10:20:50.505Z,612.00
2023-03-11T10:24:50.523Z,631.00
2023-03-11T10:28:50.655Z,586.00
2023-03-11T10:32:50.784Z,598.00
2023-03-11T10:36:50.806Z,577.00
2023-03-11T10:40:50.885Z,582.00
2023-03-11T10:44:52.546Z,573.00
2023-03-11T10:48:51.032Z,598.00
2023-03-11T10:52:51.001Z,576.00
2023-03-11T10:56:50.978Z,557.00
2023-03-11T11:00:50.979Z,575.00
2023-03-11T11:04:50.881Z,565.00
2023-03-11T11:08:50.854Z,581.00
2023-03-11T11:12:50.830Z,596.00
2023-03-11T11:16:50.840Z,681.00
2023-03-11T11:20:50.767Z,638.00
2023-03-11T11:24:50.833Z,890.00
2023-03-11T11:28:50.710Z,975.00
2023-03-11T11:32:50.728Z,710.00
2023-03-11T11:36:50.622Z,778.00
2023-03-11T11:40:50.619Z,864.00
2023-03-11T11:44:50.639Z,818.00
2023-03-11T11:48:50.712Z,743.00
2023-03-11T11:52:50.833Z,662.00
2023-03-11T11:56:50.844Z,769.00
2023-03-11T12:00:50.892Z,672.00
2023-03-11T12:04:50.902Z,1029.00
2023-03-11T12:08:50.914Z,925.00
2023-03-11T12:12:50.945Z,798.00
2023-03-11T12:16:50.998Z,656.00
2023-03-11T12:20:50.987Z,661.00
2023-03-11T12:24:50.939Z,560.00
2023-03-11T12:28:50.882Z,608.00
2023-03-11T12:32:50.882Z,594.00
2023-03-11T12:36:50.827Z,609.00
2023-03-11T12:40:50.826Z,573.00
2023-03-11T12:44:50.766Z,572.00
2023-03-11T12:48:50.754Z,549.00
2023-03-11T12:52:50.705Z,555.00
2023-03-11T12:56:50.676Z,512.00
2023-03-11T13:00:50.672Z,529.00
2023-03-11T13:04:50.605Z,554.00
2023-03-11T13:08:50.562Z,519.00
2023-03-11T13:12:50.516Z,530.00
2023-03-11T13:16:50.496Z,521.00
2023-03-11T13:20:50.495Z,516.00
2023-03-11T13:24:50.400Z,540.00
2023-03-11T13:28:50.364Z,526.00
2023-03-11T13:32:50.410Z,520.00
2023-03-11T13:36:50.308Z,549.00
2023-03-11T13:40:50.291Z,537.00
2023-03-11T13:44:50.441Z,517.00
2023-03-11T13:48:50.586Z,506.00
2023-03-11T13:52:50.780Z,511.00
2023-03-11T13:56:50.929Z,522.00
2023-03-11T14:00:51.198Z,518.00
2023-03-11T14:04:51.082Z,539.00
2023-03-11T14:08:51.073Z,518.00
2023-03-11T14:12:51.050Z,561.00
2023-03-11T14:16:51.044Z,526.00
2023-03-11T14:20:50.955Z,500.00
2023-03-11T14:24:50.884Z,532.00
2023-03-11T14:28:50.866Z,578.00
2023-03-11T14:32:50.851Z,609.00
2023-03-11T14:36:50.787Z,604.00
2023-03-11T14:40:51.710Z,545.00
2023-03-11T14:44:50.726Z,554.00
2023-03-11T14:48:50.690Z,589.00
2023-03-11T14:52:50.610Z,579.00
2023-03-11T14:56:50.585Z,617.00
2023-03-11T15:00:50.553Z,606.00
2023-03-11T15:04:50.535Z,601.00
2023-03-11T15:08:50.502Z,575.00
2023-03-11T15:12:50.419Z,574.00
2023-03-11T15:16:50.486Z,588.00
2023-03-11T15:20:50.355Z,558.00
2023-03-11T15:24:50.346Z,571.00
2023-03-11T15:28:50.651Z,551.00
2023-03-11T15:32:50.721Z,521.00
2023-03-11T15:36:50.398Z,503.00
2023-03-11T15:40:50.578Z,507.00
2023-03-11T15:44:50.718Z,563.00
2023-03-11T15:48:50.909Z,603.00
2023-03-11T15:52:50.994Z,526.00
2023-03-11T15:56:51.194Z,507.00
2023-03-11T16:00:51.376Z,504.00
2023-03-11T16:04:51.693Z,507.00
2023-03-11T16:08:51.756Z,512.00
2023-03-11T16:12:51.793Z,519.00
2023-03-11T16:16:51.649Z,546.00
2023-03-11T16:20:51.665Z,576.00
2023-03-11T16:24:51.618Z,574.00
2023-03-11T16:28:51.544Z,567.00
2023-03-11T16:32:51.564Z,580.00
2023-03-11T16:36:51.615Z,564.00
2023-03-11T16:40:51.445Z,574.00
2023-03-11T16:44:51.401Z,582.00
2023-03-11T16:48:51.485Z,534.00
2023-03-11T16:52:51.652Z,535.00
2023-03-11T16:56:51.798Z,542.00
2023-03-11T17:00:52.699Z,570.00
2023-03-11T17:04:52.188Z,555.00
2023-03-11T17:08:52.307Z,560.00
2023-03-11T17:12:52.441Z,557.00
2023-03-11T17:16:52.575Z,597.00
2023-03-11T17:20:52.706Z,605.00
2023-03-11T17:24:52.987Z,629.00
2023-03-11T17:28:53.150Z,609.00
2023-03-11T17:32:53.357Z,627.00
2023-03-11T17:36:53.527Z,621.00
2023-03-11T17:40:53.741Z,619.00
2023-03-11T17:44:53.846Z,596.00
2023-03-11T17:48:53.923Z,599.00
2023-03-11T17:52:54.000Z,611.00
2023-03-11T17:56:54.128Z,629.00
2023-03-11T18:00:54.301Z,634.00
2023-03-11T18:04:54.381Z,642.00
2023-03-11T18:08:54.419Z,635.00
2023-03-11T18:12:54.709Z,636.00
2023-03-11T18:16:54.835Z,642.00
2023-03-11T18:20:54.870Z,640.00
2023-03-11T18:24:54.970Z,603.00
2023-03-11T18:28:55.154Z,580.00
2023-03-11T18:32:55.339Z,603.00
2023-03-11T18:36:55.324Z,614.00
2023-03-11T18:40:55.739Z,576.00
2023-03-11T18:44:55.521Z,635.00
2023-03-11T18:48:55.585Z,655.00
2023-03-11T18:52:55.628Z,661.00
2023-03-11T18:56:55.762Z,664.00
2023-03-11T19:00:55.832Z,643.00
2023-03-11T19:04:55.940Z,616.00
2023-03-11T19:08:55.960Z,624.00
2023-03-11T19:12:56.098Z,639.00
2023-03-11T19:16:56.379Z,632.00
2023-03-11T19:20:56.312Z,666.00
2023-03-11T19:24:56.482Z,683.00
2023-03-11T19:28:56.555Z,656.00
2023-03-11T19:32:56.789Z,660.00
2023-03-11T19:36:56.912Z,656.00
2023-03-11T19:40:57.047Z,774.00
2023-03-11T19:44:57.219Z,662.00
2023-03-11T19:48:57.340Z,659.00
2023-03-11T19:52:57.527Z,755.00
2023-03-11T19:56:57.655Z,653.00
2023-03-11T20:00:57.854Z,693.00
2023-03-11T20:04:58.103Z,660.00
2023-03-11T20:08:58.148Z,844.00
2023-03-11T20:13:02.487Z,759.00
2023-03-11T20:16:58.173Z,843.00
2023-03-11T20:20:58.158Z,888.00
2023-03-11T20:24:58.077Z,867.00
2023-03-11T20:28:58.050Z,820.00
2023-03-11T20:32:58.092Z,890.00
2023-03-11T20:36:57.933Z,757.00
2023-03-11T20:40:57.963Z,856.00
2023-03-11T20:44:58.316Z,835.00
2023-03-11T20:48:58.107Z,740.00
2023-03-11T20:52:58.091Z,808.00
2023-03-11T20:56:58.111Z,776.00
2023-03-11T21:00:58.109Z,780.00
2023-03-11T21:04:58.104Z,749.00
2023-03-11T21:08:58.188Z,742.00
2023-03-11T21:12:58.274Z,755.00
2023-03-11T21:16:58.348Z,759.00
2023-03-11T21:20:58.305Z,737.00
2023-03-11T21:24:58.374Z,693.00
2023-03-11T21:28:58.331Z,721.00
2023-03-11T21:32:58.395Z,721.00
2023-03-11T21:36:58.241Z,728.00
2023-03-11T21:40:58.425Z,695.00
2023-03-11T21:44:58.357Z,709.00
2023-03-11T21:48:58.490Z,710.00
2023-03-11T21:52:58.554Z,711.00
2023-03-11T21:56:58.503Z,772.00
2023-03-11T22:00:58.657Z,720.00
2023-03-11T22:04:58.739Z,705.00
2023-03-11T22:08:58.705Z,678.00
2023-03-11T22:12:58.805Z,651.00
2023-03-11T22:16:58.747Z,650.00
2023-03-11T22:20:58.763Z,627.00
2023-03-11T22:24:58.730Z,602.00
2023-03-11T22:28:58.803Z,600.00
2023-03-11T22:32:58.820Z,601.00
2023-03-11T22:36:58.890Z,582.00
2023-03-11T22:40:58.909Z,553.00
2023-03-11T22:44:58.852Z,561.00
2023-03-11T22:48:58.914Z,574.00
2023-03-11T22:52:58.934Z,579.00
2023-03-11T22:56:58.953Z,576.00
2023-03-11T23:00:59.014Z,568.00
2023-03-11T23:04:59.013Z,574.00
2023-03-11T23:08:59.020Z,556.00
2023-03-11T23:12:59.051Z,557.00
2023-03-11T23:16:59.108Z,548.00
2023-03-11T23:20:59.080Z,535.00
2023-03-11T23:24:59.157Z,531.00
2023-03-11T23:28:59.091Z,529.00
2023-03-11T23:32:59.210Z,503.00
2023-03-11T23:36:59.079Z,538.00
2023-03-11T23:40:59.093Z,542.00
2023-03-11T23:44:59.111Z,537.00
2023-03-11T23:48:59.127Z,554.00
2023-03-11T23:52:59.114Z,557.00
2023-03-11T23:56:59.123Z,535.00
